San Antonio, Texas
Traffic Map
Current Weather Conditions
San Antonio, Texas
Overcast
Overcast
26°
Feels Like: 28°
Wind Chill: 26° Ceiling: 1000
Heat Index: 28° Visibility: 10mi
Dew Point: 24° Wind: 12mph
Humidity: 89% Direction: 170° (S)
Pressure: 29.82in Gusts: 0mph
Raw Report DataKSKF 020648Z AUTO 17010KT 10SM OVC010 26/24 A2982 RMK AO2 $
Traffic Incident Summary
Active as of:
Severity:
Category:
InformationThere was an issue retrieving the traffic information for this location. Please try a different location or try again shortly.
Advertisements
Track Severe Weather on mobile